sensor_id;sensor_type;location;lat;lon;timestamp;P1;durP1;ratioP1;P2;durP2;ratioP2
27580;SDS011;63557;52.302;7.964;2023-03-03T00:01:39;90.65;;;35.65;;
27580;SDS011;63557;52.302;7.964;2023-03-03T00:06:40;100.70;;;36.95;;
27580;SDS011;63557;52.302;7.964;2023-03-03T00:11:41;106.70;;;37.93;;
27580;SDS011;63557;52.302;7.964;2023-03-03T00:16:41;101.75;;;36.50;;
27580;SDS011;63557;52.302;7.964;2023-03-03T00:21:44;105.60;;;36.95;;
27580;SDS011;63557;52.302;7.964;2023-03-03T00:26:54;112.80;;;38.05;;
27580;SDS011;63557;52.302;7.964;2023-03-03T00:32:00;113.90;;;39.55;;
27580;SDS011;63557;52.302;7.964;2023-03-03T00:37:21;106.80;;;35.22;;
27580;SDS011;63557;52.302;7.964;2023-03-03T00:42:22;103.15;;;36.08;;
27580;SDS011;63557;52.302;7.964;2023-03-03T00:52:27;119.10;;;39.63;;
27580;SDS011;63557;52.302;7.964;2023-03-03T00:57:28;127.05;;;40.78;;
27580;SDS011;63557;52.302;7.964;2023-03-03T01:02:29;136.75;;;40.47;;
27580;SDS011;63557;52.302;7.964;2023-03-03T01:07:30;143.77;;;42.60;;
27580;SDS011;63557;52.302;7.964;2023-03-03T01:12:30;129.00;;;39.72;;
27580;SDS011;63557;52.302;7.964;2023-03-03T01:17:31;109.03;;;35.85;;
27580;SDS011;63557;52.302;7.964;2023-03-03T01:22:31;142.32;;;39.58;;
27580;SDS011;63557;52.302;7.964;2023-03-03T01:27:32;109.93;;;35.40;;
27580;SDS011;63557;52.302;7.964;2023-03-03T01:32:33;124.45;;;38.28;;
27580;SDS011;63557;52.302;7.964;2023-03-03T01:37:34;115.07;;;37.03;;
27580;SDS011;63557;52.302;7.964;2023-03-03T01:42:36;93.95;;;32.10;;
27580;SDS011;63557;52.302;7.964;2023-03-03T01:47:36;109.67;;;34.97;;
27580;SDS011;63557;52.302;7.964;2023-03-03T01:52:37;102.73;;;34.70;;
27580;SDS011;63557;52.302;7.964;2023-03-03T01:57:40;93.32;;;32.72;;
27580;SDS011;63557;52.302;7.964;2023-03-03T02:02:42;94.70;;;31.00;;
27580;SDS011;63557;52.302;7.964;2023-03-03T02:07:43;88.45;;;30.90;;
27580;SDS011;63557;52.302;7.964;2023-03-03T02:12:48;70.70;;;25.38;;
27580;SDS011;63557;52.302;7.964;2023-03-03T02:17:51;71.73;;;26.80;;
27580;SDS011;63557;52.302;7.964;2023-03-03T02:22:54;67.03;;;25.88;;
27580;SDS011;63557;52.302;7.964;2023-03-03T02:27:56;77.05;;;26.98;;
27580;SDS011;63557;52.302;7.964;2023-03-03T02:32:57;60.50;;;25.33;;
27580;SDS011;63557;52.302;7.964;2023-03-03T02:37:58;63.80;;;24.27;;
27580;SDS011;63557;52.302;7.964;2023-03-03T02:43:02;77.72;;;26.40;;
27580;SDS011;63557;52.302;7.964;2023-03-03T02:48:03;61.78;;;25.33;;
27580;SDS011;63557;52.302;7.964;2023-03-03T02:53:03;72.53;;;25.70;;
27580;SDS011;63557;52.302;7.964;2023-03-03T02:58:04;72.90;;;26.75;;
27580;SDS011;63557;52.302;7.964;2023-03-03T03:03:04;78.53;;;26.85;;
27580;SDS011;63557;52.302;7.964;2023-03-03T03:08:06;79.28;;;28.15;;
27580;SDS011;63557;52.302;7.964;2023-03-03T03:13:06;81.57;;;27.60;;
27580;SDS011;63557;52.302;7.964;2023-03-03T03:18:07;77.00;;;26.98;;
27580;SDS011;63557;52.302;7.964;2023-03-03T03:23:08;78.47;;;25.85;;
27580;SDS011;63557;52.302;7.964;2023-03-03T03:28:10;81.35;;;26.77;;
27580;SDS011;63557;52.302;7.964;2023-03-03T03:33:11;82.93;;;25.88;;
27580;SDS011;63557;52.302;7.964;2023-03-03T03:38:12;76.63;;;26.65;;
27580;SDS011;63557;52.302;7.964;2023-03-03T03:43:13;79.20;;;27.33;;
27580;SDS011;63557;52.302;7.964;2023-03-03T03:48:15;77.72;;;27.45;;
27580;SDS011;63557;52.302;7.964;2023-03-03T03:53:18;86.82;;;28.17;;
27580;SDS011;63557;52.302;7.964;2023-03-03T03:58:19;73.47;;;26.52;;
27580;SDS011;63557;52.302;7.964;2023-03-03T04:03:29;90.20;;;27.48;;
27580;SDS011;63557;52.302;7.964;2023-03-03T04:08:29;86.63;;;28.00;;
27580;SDS011;63557;52.302;7.964;2023-03-03T04:13:30;93.10;;;29.90;;
27580;SDS011;63557;52.302;7.964;2023-03-03T04:18:34;91.03;;;31.48;;
27580;SDS011;63557;52.302;7.964;2023-03-03T04:23:36;90.97;;;30.58;;
27580;SDS011;63557;52.302;7.964;2023-03-03T04:28:37;100.32;;;31.67;;
27580;SDS011;63557;52.302;7.964;2023-03-03T04:33:37;98.97;;;30.08;;
27580;SDS011;63557;52.302;7.964;2023-03-03T04:38:39;92.28;;;28.20;;
27580;SDS011;63557;52.302;7.964;2023-03-03T04:43:39;93.53;;;30.00;;
27580;SDS011;63557;52.302;7.964;2023-03-03T04:48:40;91.90;;;27.40;;
27580;SDS011;63557;52.302;7.964;2023-03-03T04:53:41;91.43;;;27.30;;
27580;SDS011;63557;52.302;7.964;2023-03-03T04:58:43;84.30;;;28.63;;
27580;SDS011;63557;52.302;7.964;2023-03-03T05:03:45;85.05;;;27.55;;
27580;SDS011;63557;52.302;7.964;2023-03-03T05:08:45;83.35;;;26.13;;
27580;SDS011;63557;52.302;7.964;2023-03-03T05:13:45;89.13;;;25.93;;
27580;SDS011;63557;52.302;7.964;2023-03-03T05:18:46;72.55;;;25.90;;
27580;SDS011;63557;52.302;7.964;2023-03-03T05:23:47;72.95;;;23.80;;
27580;SDS011;63557;52.302;7.964;2023-03-03T05:28:48;77.05;;;23.70;;
27580;SDS011;63557;52.302;7.964;2023-03-03T05:33:48;80.13;;;24.03;;
27580;SDS011;63557;52.302;7.964;2023-03-03T05:38:48;66.60;;;24.98;;
27580;SDS011;63557;52.302;7.964;2023-03-03T05:43:49;80.57;;;24.05;;
27580;SDS011;63557;52.302;7.964;2023-03-03T05:48:49;68.55;;;23.02;;
27580;SDS011;63557;52.302;7.964;2023-03-03T05:53:49;63.63;;;22.17;;
27580;SDS011;63557;52.302;7.964;2023-03-03T05:58:50;68.03;;;24.27;;
27580;SDS011;63557;52.302;7.964;2023-03-03T06:03:50;67.30;;;24.27;;
27580;SDS011;63557;52.302;7.964;2023-03-03T06:08:50;60.90;;;22.30;;
27580;SDS011;63557;52.302;7.964;2023-03-03T06:13:52;64.43;;;22.75;;
27580;SDS011;63557;52.302;7.964;2023-03-03T06:18:53;59.45;;;22.10;;
27580;SDS011;63557;52.302;7.964;2023-03-03T06:23:53;57.13;;;21.08;;
27580;SDS011;63557;52.302;7.964;2023-03-03T06:28:54;58.88;;;21.27;;
27580;SDS011;63557;52.302;7.964;2023-03-03T06:33:54;56.08;;;20.38;;
27580;SDS011;63557;52.302;7.964;2023-03-03T06:38:54;63.75;;;20.33;;
27580;SDS011;63557;52.302;7.964;2023-03-03T06:43:55;58.13;;;21.80;;
27580;SDS011;63557;52.302;7.964;2023-03-03T06:48:55;61.95;;;22.42;;
27580;SDS011;63557;52.302;7.964;2023-03-03T06:53:56;62.90;;;22.95;;
27580;SDS011;63557;52.302;7.964;2023-03-03T06:58:57;65.50;;;23.50;;
27580;SDS011;63557;52.302;7.964;2023-03-03T07:03:59;64.43;;;23.83;;
27580;SDS011;63557;52.302;7.964;2023-03-03T07:08:59;71.32;;;26.50;;
27580;SDS011;63557;52.302;7.964;2023-03-03T07:14:00;58.45;;;22.83;;
27580;SDS011;63557;52.302;7.964;2023-03-03T07:19:01;66.55;;;25.17;;
27580;SDS011;63557;52.302;7.964;2023-03-03T07:24:36;77.07;;;27.70;;
27580;SDS011;63557;52.302;7.964;2023-03-03T07:29:29;79.07;;;27.23;;
27580;SDS011;63557;52.302;7.964;2023-03-03T07:34:34;92.03;;;31.15;;
27580;SDS011;63557;52.302;7.964;2023-03-03T07:39:37;86.80;;;31.02;;
27580;SDS011;63557;52.302;7.964;2023-03-03T07:44:38;87.85;;;30.83;;
27580;SDS011;63557;52.302;7.964;2023-03-03T07:49:38;86.10;;;31.17;;
27580;SDS011;63557;52.302;7.964;2023-03-03T07:54:39;118.70;;;34.83;;
27580;SDS011;63557;52.302;7.964;2023-03-03T07:59:48;99.47;;;33.15;;
27580;SDS011;63557;52.302;7.964;2023-03-03T08:04:49;97.45;;;31.05;;
27580;SDS011;63557;52.302;7.964;2023-03-03T08:10:00;97.25;;;33.83;;
27580;SDS011;63557;52.302;7.964;2023-03-03T08:15:10;107.30;;;35.78;;
27580;SDS011;63557;52.302;7.964;2023-03-03T08:25:30;102.50;;;36.97;;
27580;SDS011;63557;52.302;7.964;2023-03-03T08:30:30;113.25;;;38.50;;
27580;SDS011;63557;52.302;7.964;2023-03-03T08:35:31;106.70;;;39.25;;
27580;SDS011;63557;52.302;7.964;2023-03-03T08:40:31;104.47;;;34.35;;
27580;SDS011;63557;52.302;7.964;2023-03-03T08:45:32;80.28;;;29.80;;
27580;SDS011;63557;52.302;7.964;2023-03-03T08:50:33;96.88;;;33.92;;
27580;SDS011;63557;52.302;7.964;2023-03-03T08:55:33;104.45;;;37.20;;
27580;SDS011;63557;52.302;7.964;2023-03-03T09:00:34;105.60;;;35.75;;
27580;SDS011;63557;52.302;7.964;2023-03-03T09:05:36;93.97;;;34.30;;
27580;SDS011;63557;52.302;7.964;2023-03-03T09:10:37;97.28;;;35.90;;
27580;SDS011;63557;52.302;7.964;2023-03-03T09:15:37;98.00;;;38.17;;
27580;SDS011;63557;52.302;7.964;2023-03-03T09:20:39;87.05;;;32.03;;
27580;SDS011;63557;52.302;7.964;2023-03-03T09:25:40;88.35;;;32.72;;
27580;SDS011;63557;52.302;7.964;2023-03-03T09:30:41;94.68;;;34.70;;
27580;SDS011;63557;52.302;7.964;2023-03-03T09:35:45;95.90;;;35.10;;
27580;SDS011;63557;52.302;7.964;2023-03-03T09:46:11;82.22;;;29.92;;
27580;SDS011;63557;52.302;7.964;2023-03-03T10:22:19;70.30;;;28.50;;
27580;SDS011;63557;52.302;7.964;2023-03-03T10:32:43;65.57;;;25.90;;
27580;SDS011;63557;52.302;7.964;2023-03-03T10:42:57;58.90;;;24.23;;
27580;SDS011;63557;52.302;7.964;2023-03-03T11:08:27;55.80;;;23.33;;
27580;SDS011;63557;52.302;7.964;2023-03-03T11:13:50;44.22;;;21.95;;
27580;SDS011;63557;52.302;7.964;2023-03-03T11:39:32;50.53;;;22.83;;
27580;SDS011;63557;52.302;7.964;2023-03-03T11:44:37;47.50;;;23.40;;
27580;SDS011;63557;52.302;7.964;2023-03-03T11:49:40;48.30;;;23.60;;
27580;SDS011;63557;52.302;7.964;2023-03-03T11:59:52;43.50;;;21.47;;
27580;SDS011;63557;52.302;7.964;2023-03-03T12:04:56;42.28;;;21.80;;
27580;SDS011;63557;52.302;7.964;2023-03-03T12:10:04;40.75;;;20.33;;
27580;SDS011;63557;52.302;7.964;2023-03-03T12:31:14;32.27;;;16.67;;
27580;SDS011;63557;52.302;7.964;2023-03-03T12:36:21;31.23;;;16.95;;
27580;SDS011;63557;52.302;7.964;2023-03-03T12:57:36;27.38;;;15.88;;
27580;SDS011;63557;52.302;7.964;2023-03-03T13:02:17;30.27;;;17.83;;
27580;SDS011;63557;52.302;7.964;2023-03-03T13:07:42;28.17;;;17.25;;
27580;SDS011;63557;52.302;7.964;2023-03-03T13:12:49;26.70;;;14.82;;
27580;SDS011;63557;52.302;7.964;2023-03-03T13:27:54;24.27;;;15.63;;
27580;SDS011;63557;52.302;7.964;2023-03-03T13:32:56;24.33;;;14.52;;
27580;SDS011;63557;52.302;7.964;2023-03-03T13:37:58;24.50;;;15.70;;
27580;SDS011;63557;52.302;7.964;2023-03-03T13:43:02;24.88;;;15.13;;
27580;SDS011;63557;52.302;7.964;2023-03-03T13:48:23;22.75;;;14.50;;
27580;SDS011;63557;52.302;7.964;2023-03-03T13:58:48;37.92;;;24.70;;
27580;SDS011;63557;52.302;7.964;2023-03-03T14:03:58;21.33;;;14.85;;
27580;SDS011;63557;52.302;7.964;2023-03-03T14:24:20;19.27;;;15.07;;
27580;SDS011;63557;52.302;7.964;2023-03-03T14:44:45;20.10;;;13.60;;
27580;SDS011;63557;52.302;7.964;2023-03-03T14:49:49;18.55;;;13.55;;
27580;SDS011;63557;52.302;7.964;2023-03-03T14:54:51;18.88;;;13.25;;
27580;SDS011;63557;52.302;7.964;2023-03-03T15:05:16;18.85;;;12.73;;
27580;SDS011;63557;52.302;7.964;2023-03-03T15:15:36;22.05;;;13.15;;
27580;SDS011;63557;52.302;7.964;2023-03-03T15:20:45;18.15;;;11.90;;
27580;SDS011;63557;52.302;7.964;2023-03-03T15:30:49;27.43;;;14.73;;
27580;SDS011;63557;52.302;7.964;2023-03-03T15:36:00;25.48;;;15.02;;
27580;SDS011;63557;52.302;7.964;2023-03-03T15:42:03;27.55;;;13.75;;
27580;SDS011;63557;52.302;7.964;2023-03-03T15:46:42;26.05;;;14.55;;
27580;SDS011;63557;52.302;7.964;2023-03-03T15:56:53;27.17;;;15.82;;
27580;SDS011;63557;52.302;7.964;2023-03-03T16:27:51;15.77;;;8.57;;
27580;SDS011;63557;52.302;7.964;2023-03-03T16:33:13;15.00;;;8.95;;
27580;SDS011;63557;52.302;7.964;2023-03-03T16:38:26;26.92;;;14.40;;
27580;SDS011;63557;52.302;7.964;2023-03-03T16:49:33;16.17;;;8.77;;
27580;SDS011;63557;52.302;7.964;2023-03-03T17:20:27;13.32;;;10.05;;
27580;SDS011;63557;52.302;7.964;2023-03-03T17:51:42;11.18;;;7.55;;
27580;SDS011;63557;52.302;7.964;2023-03-03T18:12:09;9.50;;;8.07;;
27580;SDS011;63557;52.302;7.964;2023-03-03T18:22:19;13.27;;;9.45;;
27580;SDS011;63557;52.302;7.964;2023-03-03T18:27:31;12.43;;;9.70;;
27580;SDS011;63557;52.302;7.964;2023-03-03T18:37:51;15.63;;;12.20;;
27580;SDS011;63557;52.302;7.964;2023-03-03T18:42:51;13.60;;;10.23;;
27580;SDS011;63557;52.302;7.964;2023-03-03T18:53:13;19.17;;;12.00;;
27580;SDS011;63557;52.302;7.964;2023-03-03T19:08:44;21.20;;;11.85;;
27580;SDS011;63557;52.302;7.964;2023-03-03T19:13:45;17.02;;;9.77;;
27580;SDS011;63557;52.302;7.964;2023-03-03T19:49:54;16.05;;;7.95;;
27580;SDS011;63557;52.302;7.964;2023-03-03T20:05:20;20.10;;;6.50;;
27580;SDS011;63557;52.302;7.964;2023-03-03T20:15:23;24.27;;;7.45;;
27580;SDS011;63557;52.302;7.964;2023-03-03T20:56:35;27.30;;;6.68;;
27580;SDS011;63557;52.302;7.964;2023-03-03T21:01:52;30.70;;;10.03;;
27580;SDS011;63557;52.302;7.964;2023-03-03T21:06:55;32.45;;;7.35;;
27580;SDS011;63557;52.302;7.964;2023-03-03T21:11:56;34.28;;;8.75;;
27580;SDS011;63557;52.302;7.964;2023-03-03T21:16:58;29.65;;;7.25;;
27580;SDS011;63557;52.302;7.964;2023-03-03T21:22:01;29.70;;;7.30;;
27580;SDS011;63557;52.302;7.964;2023-03-03T21:27:03;44.03;;;14.02;;
27580;SDS011;63557;52.302;7.964;2023-03-03T21:32:39;33.03;;;13.13;;
27580;SDS011;63557;52.302;7.964;2023-03-03T21:37:44;21.65;;;6.88;;
27580;SDS011;63557;52.302;7.964;2023-03-03T21:42:44;38.72;;;13.50;;
27580;SDS011;63557;52.302;7.964;2023-03-03T21:47:45;54.10;;;19.33;;
27580;SDS011;63557;52.302;7.964;2023-03-03T21:52:46;50.90;;;18.88;;
27580;SDS011;63557;52.302;7.964;2023-03-03T21:57:46;34.78;;;10.27;;
27580;SDS011;63557;52.302;7.964;2023-03-03T22:02:47;68.50;;;33.17;;
27580;SDS011;63557;52.302;7.964;2023-03-03T22:07:48;44.40;;;15.48;;
27580;SDS011;63557;52.302;7.964;2023-03-03T22:12:48;91.57;;;48.05;;
27580;SDS011;63557;52.302;7.964;2023-03-03T22:17:48;43.15;;;24.90;;
27580;SDS011;63557;52.302;7.964;2023-03-03T22:22:49;31.85;;;6.22;;
27580;SDS011;63557;52.302;7.964;2023-03-03T22:27:49;26.55;;;6.68;;
27580;SDS011;63557;52.302;7.964;2023-03-03T22:32:49;35.73;;;6.67;;
27580;SDS011;63557;52.302;7.964;2023-03-03T22:37:53;35.30;;;6.75;;
27580;SDS011;63557;52.302;7.964;2023-03-03T22:42:53;23.03;;;6.37;;
27580;SDS011;63557;52.302;7.964;2023-03-03T22:47:54;32.90;;;7.95;;
27580;SDS011;63557;52.302;7.964;2023-03-03T22:52:54;36.47;;;7.80;;
27580;SDS011;63557;52.302;7.964;2023-03-03T22:57:55;41.00;;;8.63;;
27580;SDS011;63557;52.302;7.964;2023-03-03T23:02:55;44.77;;;9.63;;
27580;SDS011;63557;52.302;7.964;2023-03-03T23:07:56;31.92;;;7.28;;
27580;SDS011;63557;52.302;7.964;2023-03-03T23:12:56;36.40;;;7.90;;
27580;SDS011;63557;52.302;7.964;2023-03-03T23:17:56;34.37;;;6.60;;
27580;SDS011;63557;52.302;7.964;2023-03-03T23:22:57;27.50;;;4.70;;
27580;SDS011;63557;52.302;7.964;2023-03-03T23:27:57;19.17;;;4.65;;
27580;SDS011;63557;52.302;7.964;2023-03-03T23:32:57;28.20;;;5.77;;
27580;SDS011;63557;52.302;7.964;2023-03-03T23:37:58;39.70;;;5.53;;
27580;SDS011;63557;52.302;7.964;2023-03-03T23:42:58;36.28;;;8.07;;
27580;SDS011;63557;52.302;7.964;2023-03-03T23:47:59;26.10;;;5.60;;
27580;SDS011;63557;52.302;7.964;2023-03-03T23:52:59;41.90;;;5.37;;
27580;SDS011;63557;52.302;7.964;2023-03-03T23:57:59;22.83;;;4.33;;
